Ashland, ME

7:43 AM EDT on July 27, 2016 (GMT -0400)
Clayton Lake | | Change Station

Elev 1030 ft 46.62 °N, 69.53 °W | Updated 23 minutes ago

Clear
Clear
67 °F
Feels Like 67 °F
N
0
Wind Variable Wind from North
Gusts mph

Today
High -- | Low -- °F
--% Chance of Precip.
Yesterday
High -- | Low -- °F
Precip. -- in
Pressure 29.88 in
Visibility -9999.0 miles
Clouds
Dew Point 64 °F
Humidity 92%
Rainfall 0.00 in
Snow Depth Not available.
5:13 AM 8:15 PM
Last Quarter, 44% visible
METAR K40B 271120Z AUTO 00000KT 19/18 A2989 RMK AO1 SLP118 T01920178 52007 P0000
Pressure 29.88 in
Visibility -9999.0 miles
Clouds
Dew Point 64 °F
Humidity 92%
Rainfall 0.00 in
Snow Depth Not available.
5:13 AM 8:15 PM
Last Quarter, 44% visible
METAR K40B 271120Z AUTO 00000KT 19/18 A2989 RMK AO1 SLP118 T01920178 52007 P0000

10-Day Weather Forecast

Almanac

Astronomy

Jul. 27, 2016 Rise Set
Actual Time
Civil Twilight
Nautical Twilight
Astronomical Twilight
Moon
Length of Visible Light
Length of Day
Tomorrow will be .
, % of the Moon is Illuminated

Today's Extremes

State Highs State Lows

Community

WunderPhotos

Upload Photos

1,927,828 photos uploaded!

WunderBlog® & News

Nearby

Air Quality

  Air Quality AQ Index Pollutant
Not available.

Snow Depth

Station Depth Elevation

Earthquake Activity

City Distance Mag. Time & Date
Minimum magnitude displayed is 2.5.

Coastal Water Temperatures

Place Temperature

Stations

Nearby Weather Stations

Station Location Temp. Windchill Dew Point Humidity Wind Precip. Elev Updated Type
                   

Watches & Warnings

There are currently no watches in effect.